Wednesday, August 15, 2018, 11:59 PM EDT
Back to Local

KPHD, New Philadelphia Clever Fld

Location: New Philadelphia, OH, United States Lat: 40.467
Local Time: 11:59 PM EDT ( 3:59 GMT) Lon: -81.417
Time Zone: US/Eastern Elev: 895 ft

Show me the last for .
Show Decoded

2018-08-15 22:53 METAR KPHD 160253Z AUTO 13003KT 9SM CLR 23/21 A3007 RMK AO2 SLP174 T02280211
                 53004 =
2018-08-15 21:53 METAR KPHD 160153Z AUTO 12004KT 10SM CLR 23/21 A3006 RMK AO2 SLP173 T02280206 =
2018-08-15 20:53 METAR KPHD 160053Z AUTO 00000KT 10SM CLR 24/19 A3005 RMK AO2 SLP170 T02390194 =
2018-08-15 19:53 METAR KPHD 152353Z AUTO 00000KT 10SM CLR 26/20 A3005 RMK AO2 SLP170 T02610200
                 10311 20261 53001 =
2018-08-15 18:53 METAR KPHD 152253Z AUTO 20003KT 10SM CLR 27/20 A3004 RMK AO2 SLP168 T02720200 =
2018-08-15 17:53 METAR KPHD 152153Z AUTO 21005KT 10SM CLR 29/18 A3004 RMK AO2 SLP167 T02890183 =
2018-08-15 16:53 METAR KPHD 152053Z AUTO 23004KT 10SM CLR 29/18 A3005 RMK AO2 SLP168 T02940178
                 56007 =
2018-08-15 15:53 METAR KPHD 151953Z AUTO 22006KT 10SM CLR 31/19 A3005 RMK AO2 SLP170 T03060189 =
2018-08-15 14:53 METAR KPHD 151853Z AUTO 19007KT 10SM SCT046 BKN060 31/19 A3006 RMK AO2 SLP172
                 T03060189 =
2018-08-15 13:53 METAR KPHD 151753Z AUTO 21006KT 10SM BKN040 30/19 A3007 RMK AO2 SLP176 T03000194
                 10300 20189 56006 =
2018-08-15 12:53 METAR KPHD 151653Z AUTO 24007KT 10SM FEW048 29/19 A3007 RMK AO2 SLP176 T02890194
                 =
2018-08-15 11:53 METAR KPHD 151553Z AUTO 20004KT 10SM BKN042 28/21 A3008 RMK AO2 SLP179 T02780206
                 =
2018-08-15 10:53 METAR KPHD 151453Z AUTO 00000KT 10SM FEW038 FEW050 25/21 A3009 RMK AO2 SLP183
                 T02500206 51008 =
2018-08-15 09:53 METAR KPHD 151353Z AUTO 00000KT 10SM SCT034 23/20 A3008 RMK AO2 SLP181 T02280200
                 =
2018-08-15 08:53 METAR KPHD 151253Z AUTO 00000KT 7SM CLR 21/19 A3007 RMK AO2 SLP178 T02060194 =
2018-08-15 08:24 METAR KPHD 151224Z AUTO 00000KT 3SM BR SCT001 20/19 A3007 RMK AO2 T02000189 $ =
2018-08-15 08:15 METAR KPHD 151215Z AUTO 14003KT 1 1/4SM BR BKN001 19/18 A3007 RMK AO2 T01940183
                 $ =
2018-08-15 07:53 METAR KPHD 151153Z AUTO 13003KT 1/4SM FG OVC001 19/18 A3006 RMK AO2 SLP175
                 T01890178 10189 20178 53012 $ =
2018-08-15 06:53 METAR KPHD 151053Z AUTO 00000KT M1/4SM FG VV002 18/17 A3005 RMK AO2 SLP171
                 T01780172 $ =
2018-08-15 05:53 METAR KPHD 150953Z AUTO 12003KT 1/4SM FG VV001 18/17 A3003 RMK AO2 SLP164
                 T01780172 $ =
2018-08-15 04:53 METAR KPHD 150853Z AUTO 12003KT 1/2SM FG VV001 18/18 A3003 RMK AO2 SLP162
                 T01780178 53002 $ =
2018-08-15 04:46 METAR KPHD 150846Z AUTO 12003KT 3/4SM BR VV001 18/17 A3003 RMK AO2 T01780172 $ =
2018-08-15 04:37 METAR KPHD 150837Z AUTO 00000KT 1 1/4SM BR OVC001 18/17 A3003 RMK AO2 T01780172
                 $ =
2018-08-15 03:54 METAR KPHD 150754Z AUTO 00000KT 3/4SM BR OVC001 18/17 A3002 RMK AO2 T01780172 $
                 =
2018-08-15 03:50 METAR KPHD 150750Z AUTO 00000KT 1 1/2SM BR OVC001 18/17 A3002 RMK AO2 SLP160
                 T01780172 $ =
2018-08-15 03:49 METAR KPHD 150749Z AUTO 00000KT 1 3/4SM BR OVC001 18/17 A3002 RMK AO2 $ =
2018-08-15 03:27 METAR KPHD 150727Z AUTO 12003KT 7SM BKN002 18/17 A3002 RMK AO2 T01780167 $ =
2018-08-15 03:04 METAR KPHD 150704Z AUTO 12003KT 5SM BR SCT001 18/17 A3002 RMK AO2 T01780172 $ =
2018-08-15 02:53 METAR KPHD 150653Z AUTO 12003KT 5SM BR CLR 18/17 A3002 RMK AO2 SLP158 T01780172
                 $ =
2018-08-15 01:53 METAR KPHD 150553Z AUTO 00000KT 5SM BR CLR 18/18 A3002 RMK AO2 SLP160 T01830178
                 10261 20178 50002 $ =
2018-08-15 00:58 METAR KPHD 150458Z AUTO 00000KT 3SM BR CLR 18/18 A3003 RMK AO2 T01830178 $ =
2018-08-15 00:53 METAR KPHD 150453Z AUTO 00000KT 1 1/2SM BR CLR 18/18 A3003 RMK AO2 SLP162
                 T01830178 403000167 $ =
2018-08-15 00:46 METAR KPHD 150446Z AUTO 00000KT 2SM BR CLR 19/18 A3003 RMK AO2 VIS 3/4V4
                 T01890183 $ =

Support USWX by starting your Amazon purchase here.